createdAt,value
2022-12-05T00:03:06.316Z,41.57
2022-12-05T00:08:09.321Z,35.63
2022-12-05T00:13:12.526Z,36.80
2022-12-05T00:18:15.722Z,29.77
2022-12-05T00:23:18.964Z,31.33
2022-12-05T00:28:22.420Z,33.67
2022-12-05T00:33:25.539Z,35.33
2022-12-05T00:38:28.535Z,37.10
2022-12-05T00:43:32.210Z,38.57
2022-12-05T00:48:35.642Z,38.90
2022-12-05T00:53:38.909Z,39.33
2022-12-05T00:58:42.497Z,40.23
2022-12-05T01:03:46.409Z,36.47
2022-12-05T01:08:49.406Z,40.67
2022-12-05T01:13:53.191Z,37.80
2022-12-05T01:18:57.963Z,35.77
2022-12-05T01:24:01.173Z,39.87
2022-12-05T01:29:05.073Z,36.37
2022-12-05T01:34:11.146Z,36.17
2022-12-05T01:39:14.754Z,41.37
2022-12-05T01:44:17.698Z,37.97
2022-12-05T01:49:34.847Z,38.67
2022-12-05T01:54:38.445Z,35.40
2022-12-05T01:59:50.354Z,38.47
2022-12-05T02:05:08.928Z,34.10
2022-12-05T02:10:12.118Z,31.03
2022-12-05T02:15:45.716Z,29.70
2022-12-05T02:21:27.558Z,32.30
2022-12-05T02:27:08.228Z,30.43
2022-12-05T02:33:18.916Z,27.00
2022-12-05T02:38:38.219Z,30.30
2022-12-05T02:44:03.413Z,29.63
2022-12-05T02:49:10.126Z,30.43
2022-12-05T02:54:17.252Z,29.67
2022-12-05T02:59:23.575Z,29.40
2022-12-05T03:04:28.088Z,30.00
2022-12-05T03:09:36.266Z,29.57
2022-12-05T03:14:48.759Z,31.57
2022-12-05T03:20:12.790Z,33.10
2022-12-05T03:25:16.284Z,28.90
2022-12-05T03:30:21.789Z,29.90
2022-12-05T03:35:37.847Z,29.53
2022-12-05T03:40:49.229Z,32.43
2022-12-05T03:46:09.972Z,29.43
2022-12-05T03:51:15.710Z,35.97
2022-12-05T03:56:24.178Z,35.57
2022-12-05T04:01:28.587Z,35.83
2022-12-05T04:06:35.160Z,31.77
2022-12-05T04:11:43.838Z,28.83
2022-12-05T04:17:28.956Z,29.47
2022-12-05T04:22:32.718Z,30.40
2022-12-05T04:27:43.115Z,28.93
2022-12-05T04:32:55.017Z,26.70
2022-12-05T04:38:05.673Z,28.97
2022-12-05T04:43:09.914Z,30.50
2022-12-05T04:48:15.582Z,36.37
2022-12-05T04:53:18.695Z,30.53
2022-12-05T04:58:23.557Z,34.17
2022-12-05T05:03:40.546Z,31.40
2022-12-05T05:08:53.093Z,33.70
2022-12-05T05:13:56.317Z,34.07
2022-12-05T05:19:02.297Z,32.27
2022-12-05T05:24:06.655Z,30.67
2022-12-05T05:29:10.708Z,31.93
2022-12-05T05:34:16.489Z,33.83
2022-12-05T05:39:19.593Z,33.17
2022-12-05T05:44:24.047Z,33.83
2022-12-05T05:49:26.936Z,32.80
2022-12-05T05:54:30.115Z,31.60
2022-12-05T05:59:33.277Z,31.07
2022-12-05T06:04:36.159Z,29.63
2022-12-05T06:09:39.524Z,29.80
2022-12-05T06:14:43.008Z,27.40
2022-12-05T06:19:46.110Z,28.63
2022-12-05T06:24:49.407Z,34.93
2022-12-05T06:29:53.235Z,29.03
2022-12-05T06:34:56.344Z,28.17
2022-12-05T06:39:59.406Z,33.70
2022-12-05T06:45:03.057Z,28.57
2022-12-05T06:50:06.686Z,28.20
2022-12-05T06:55:09.822Z,25.93
2022-12-05T07:00:32.709Z,31.63
2022-12-05T07:05:35.901Z,32.10
2022-12-05T07:10:38.997Z,35.03
2022-12-05T07:15:42.019Z,36.37
2022-12-05T07:21:10.561Z,39.90
2022-12-05T07:26:11.906Z,36.77
2022-12-05T07:31:23.002Z,35.83
2022-12-05T07:36:26.248Z,35.13
2022-12-05T07:41:33.566Z,47.03
2022-12-05T07:46:42.492Z,44.97
2022-12-05T07:51:45.460Z,41.23
2022-12-05T07:56:48.503Z,38.07
2022-12-05T08:01:52.473Z,37.97
2022-12-05T08:06:55.780Z,36.27
2022-12-05T08:11:58.978Z,39.50
2022-12-05T08:17:02.511Z,41.93
2022-12-05T08:22:08.678Z,59.10
2022-12-05T08:27:12.145Z,45.83
2022-12-05T08:32:15.198Z,41.17
2022-12-05T08:37:19.106Z,41.33
2022-12-05T08:42:22.532Z,39.20
2022-12-05T08:47:25.710Z,45.93
2022-12-05T08:52:28.947Z,44.70
2022-12-05T08:57:34.660Z,40.83
2022-12-05T09:02:37.873Z,44.07
2022-12-05T09:07:41.101Z,45.33
2022-12-05T09:12:44.391Z,41.53
2022-12-05T09:17:47.914Z,46.77
2022-12-05T09:22:52.565Z,43.37
2022-12-05T09:27:56.712Z,44.17
2022-12-05T09:33:00.231Z,43.53
2022-12-05T09:38:03.618Z,39.70
2022-12-05T09:43:07.834Z,138.40
2022-12-05T09:48:14.408Z,46.27
2022-12-05T09:53:33.330Z,43.67
2022-12-05T09:58:46.020Z,42.63
2022-12-05T10:04:17.982Z,51.03
2022-12-05T10:09:33.234Z,42.23
2022-12-05T10:14:49.831Z,48.47
2022-12-05T10:19:54.213Z,50.57
2022-12-05T10:25:04.219Z,50.90
2022-12-05T10:30:15.807Z,44.23
2022-12-05T10:35:28.389Z,74.70
2022-12-05T10:40:42.431Z,47.63
2022-12-05T10:45:47.595Z,45.53
2022-12-05T10:50:53.429Z,46.33
2022-12-05T10:56:28.869Z,42.40
2022-12-05T11:01:19.832Z,42.20
2022-12-05T11:06:29.242Z,47.50
2022-12-05T11:11:34.015Z,44.20
2022-12-05T11:16:38.957Z,53.57
2022-12-05T11:21:43.259Z,46.40
2022-12-05T11:26:46.486Z,39.53
2022-12-05T11:31:52.358Z,45.73
2022-12-05T11:37:00.307Z,48.33
2022-12-05T11:42:24.729Z,46.27
2022-12-05T11:47:52.379Z,47.87
2022-12-05T11:53:23.352Z,45.03
2022-12-05T11:59:01.620Z,48.90
2022-12-05T12:04:45.569Z,55.57
2022-12-05T12:09:48.656Z,52.00
2022-12-05T12:14:59.677Z,51.33
2022-12-05T12:20:35.032Z,51.77
2022-12-05T12:26:04.038Z,46.83
2022-12-05T12:31:13.745Z,51.70
2022-12-05T12:36:26.207Z,55.07
2022-12-05T12:41:41.598Z,46.27
2022-12-05T12:46:53.557Z,52.37
2022-12-05T12:52:04.214Z,40.00
2022-12-05T12:57:26.484Z,43.17
2022-12-05T13:02:51.498Z,40.90
2022-12-05T13:07:59.416Z,56.27
2022-12-05T13:13:04.067Z,51.97
2022-12-05T13:18:08.172Z,53.83
2022-12-05T13:23:16.987Z,48.70
2022-12-05T13:28:35.973Z,47.93
2022-12-05T13:33:50.491Z,47.87
2022-12-05T13:39:23.393Z,53.13
2022-12-05T13:44:33.629Z,55.17
2022-12-05T13:49:53.501Z,58.93
2022-12-05T13:55:01.523Z,56.83
2022-12-05T14:00:10.608Z,47.63
2022-12-05T14:05:20.292Z,48.10
2022-12-05T14:10:29.478Z,50.73
2022-12-05T14:15:36.318Z,50.63
2022-12-05T14:21:10.664Z,53.30
2022-12-05T14:26:32.635Z,82.60
2022-12-05T14:32:07.479Z,55.90
2022-12-05T14:37:16.568Z,59.50
2022-12-05T14:42:40.597Z,64.27
2022-12-05T14:47:51.138Z,67.87
2022-12-05T14:53:22.057Z,62.97
2022-12-05T14:58:33.585Z,62.17
2022-12-05T15:03:39.738Z,60.13
2022-12-05T15:08:49.747Z,59.60
2022-12-05T15:13:53.097Z,60.67
2022-12-05T15:19:07.530Z,64.97
2022-12-05T15:24:15.770Z,63.70
2022-12-05T15:29:25.575Z,77.97
2022-12-05T15:34:31.326Z,60.33
2022-12-05T15:40:00.165Z,62.57
2022-12-05T15:45:12.404Z,62.97
2022-12-05T15:50:15.979Z,61.27
2022-12-05T15:55:32.637Z,61.23
2022-12-05T16:00:37.194Z,64.93
2022-12-05T16:05:48.248Z,69.13
2022-12-05T16:10:51.813Z,66.43
2022-12-05T16:15:55.192Z,81.20
2022-12-05T16:20:58.531Z,68.07
2022-12-05T16:26:13.426Z,68.00
2022-12-05T16:31:17.954Z,68.87
2022-12-05T16:36:21.492Z,60.57
2022-12-05T16:41:33.199Z,59.47
2022-12-05T16:46:39.182Z,64.10
2022-12-05T16:51:45.013Z,63.03
2022-12-05T16:56:48.089Z,69.63
2022-12-05T17:01:51.335Z,66.53
2022-12-05T17:06:57.137Z,64.87
2022-12-05T17:12:23.573Z,55.77
2022-12-05T17:17:26.723Z,57.27
2022-12-05T17:22:30.194Z,67.40
2022-12-05T17:27:33.862Z,60.80
2022-12-05T17:32:36.911Z,57.10
2022-12-05T17:37:39.848Z,64.50
2022-12-05T17:42:43.554Z,74.57
2022-12-05T17:47:46.561Z,73.73
2022-12-05T17:52:50.579Z,64.13
2022-12-05T17:57:54.370Z,60.60
2022-12-05T18:02:57.705Z,69.87
2022-12-05T18:08:01.098Z,67.07
2022-12-05T18:13:04.688Z,71.93
2022-12-05T18:18:08.639Z,68.03
2022-12-05T18:23:12.215Z,69.50
2022-12-05T18:28:17.925Z,64.27
2022-12-05T18:33:22.730Z,78.17
2022-12-05T18:38:26.702Z,63.57
2022-12-05T18:43:30.223Z,71.07
2022-12-05T18:48:47.019Z,70.40
2022-12-05T18:53:52.830Z,90.37
2022-12-05T18:59:07.896Z,81.63
2022-12-05T19:04:12.983Z,85.97
2022-12-05T19:09:18.541Z,80.57
2022-12-05T19:14:21.501Z,90.47
2022-12-05T19:19:24.933Z,83.20
2022-12-05T19:24:28.314Z,81.80
2022-12-05T19:29:31.176Z,97.47
2022-12-05T19:34:34.640Z,94.00
2022-12-05T19:39:37.918Z,78.67
2022-12-05T19:44:41.191Z,77.17
2022-12-05T19:49:44.016Z,79.27
2022-12-05T19:54:47.072Z,83.03
2022-12-05T19:59:50.055Z,85.80
2022-12-05T20:04:53.142Z,76.63
2022-12-05T20:09:56.910Z,97.00
2022-12-05T20:15:00.601Z,85.60
2022-12-05T20:20:05.151Z,103.43
2022-12-05T20:25:08.806Z,96.93
2022-12-05T20:30:11.723Z,87.30
2022-12-05T20:35:16.608Z,88.00
2022-12-05T20:40:21.652Z,89.80
2022-12-05T20:45:25.188Z,97.80
2022-12-05T20:50:28.397Z,88.40
2022-12-05T20:55:31.423Z,84.60
2022-12-05T21:00:35.184Z,70.17
2022-12-05T21:05:39.301Z,74.03
2022-12-05T21:10:47.402Z,75.10
2022-12-05T21:15:50.716Z,71.07
2022-12-05T21:21:04.999Z,59.03
2022-12-05T21:26:11.648Z,58.03
2022-12-05T21:31:17.875Z,56.40
2022-12-05T21:36:21.789Z,63.33
2022-12-05T21:41:25.952Z,78.10
2022-12-05T21:46:29.557Z,91.43
2022-12-05T21:51:32.787Z,94.07
2022-12-05T21:56:36.613Z,86.33
2022-12-05T22:01:39.636Z,98.77
2022-12-05T22:06:43.284Z,103.87
2022-12-05T22:11:46.743Z,102.23
2022-12-05T22:16:50.140Z,96.07
2022-12-05T22:21:53.351Z,94.57
2022-12-05T22:26:56.335Z,90.87
2022-12-05T22:31:59.479Z,95.57
2022-12-05T22:37:02.384Z,101.77
2022-12-05T22:42:05.521Z,87.10
2022-12-05T22:47:08.944Z,90.73
2022-12-05T22:52:12.291Z,89.30
2022-12-05T22:57:15.671Z,91.77
2022-12-05T23:02:19.236Z,96.00
2022-12-05T23:07:22.359Z,90.80
2022-12-05T23:12:25.693Z,84.13
2022-12-05T23:17:28.696Z,87.03
2022-12-05T23:22:31.943Z,89.23
2022-12-05T23:27:35.172Z,81.63
2022-12-05T23:32:38.095Z,89.97
2022-12-05T23:37:41.189Z,77.87
2022-12-05T23:42:44.087Z,76.90
2022-12-05T23:47:46.947Z,86.87
2022-12-05T23:52:49.646Z,83.50
2022-12-05T23:57:52.615Z,83.43
